Fernando Pessoa — CSKQ — position and weather

sailwx.info

Track history (hours):
 
Tides and Currents Weather Stations Pressure Air Temp Water Temp Dewpoint Dewpoint Depression Visibility Wind Speed Wind Dir Waves Ship Positions

Fernando Pessoa

Last reported at 2014-Oct-30 17:33 UTC. Time now 2014-Oct-30 18:23 UTC.
Position N 38°39' W 009°05'.

Length 49 m.

MMSI: 263701470.

Date/timePositionNaut miles runAvg speedWind from/ knotsBaromVisibWave heightAir tempDewpointWater temp
2014-Oct-30 17:33N 38°39' W 009°05'4 3.8
2014-Oct-30 16:33N 38°42' W 009°08'1 1.4
2014-Oct-30 15:33N 38°41' W 009°08'0 0.2
2014-Oct-30 14:33N 38°41' W 009°08'0 0.1
2014-Oct-30 13:34N 38°41' W 009°08'0 0.2
2014-Oct-30 12:33N 38°41' W 009°08'0 0.1
2014-Oct-30 11:34N 38°41' W 009°08'3 2.8
2014-Oct-30 10:33N 38°39' W 009°05'2 1.6
2014-Oct-30 09:33N 38°40' W 009°07'3 2.8
2014-Oct-30 08:33N 38°42' W 009°08'1 1.3
2014-Oct-30 07:33N 38°41' W 009°08'3 3.0
2014-Oct-30 06:33N 38°39' W 009°05'0 0.0
2014-Oct-29 22:13N 38°39' W 009°05'0 0.0
2014-Oct-29 21:33N 38°39' W 009°05'0 0.0
2014-Oct-29 20:33N 38°39' W 009°05'4 3.8
2014-Oct-29 19:33N 38°42' W 009°08'0 0.2
2014-Oct-29 18:34N 38°42' W 009°08'2 2.4
2014-Oct-29 17:34N 38°40' W 009°07'1 1.5
2014-Oct-29 16:34N 38°39' W 009°06'1 0.9
2014-Oct-29 15:34N 38°40' W 009°06'1 1.4
2014-Oct-29 14:33N 38°39' W 009°05'0 0.0
2014-Oct-29 13:33N 38°39' W 009°05'0 0.0
2014-Oct-29 12:33N 38°39' W 009°05'0 0.0
2014-Oct-29 11:33N 38°39' W 009°05'0 0.0
2014-Oct-29 10:33N 38°39' W 009°05'2 1.6
2014-Oct-29 09:33N 38°40' W 009°07'0 0.2
2014-Oct-29 08:33N 38°40' W 009°07'2 1.9
2014-Oct-29 07:33N 38°39' W 009°05'0 0.0
2014-Oct-29 06:33N 38°39' W 009°05'0 0.0
2014-Oct-29 05:33N 38°39' W 009°05'0 0.0
2014-Oct-29 04:34N 38°39' W 009°05'0 0.0
2014-Oct-29 03:33N 38°39' W 009°05'0 0.0
2014-Oct-29 02:33N 38°39' W 009°05'0 0.0
2014-Oct-29 01:33N 38°39' W 009°05'0 0.0
2014-Oct-29 00:33N 38°39' W 009°05'4 4.0
2014-Oct-28 23:33N 38°42' W 009°08'1 1.4
2014-Oct-28 22:34N 38°41' W 009°08'0 0.3
2014-Oct-28 21:34N 38°41' W 009°08'3 3.1
2014-Oct-28 20:33N 38°39' W 009°05'1 0.5
2014-Oct-28 19:33N 38°39' W 009°05'1 0.5
2014-Oct-28 18:33N 38°39' W 009°05'1 0.9
2014-Oct-28 17:33N 38°39' W 009°06'1 0.7
2014-Oct-28 16:33N 38°39' W 009°05'0 0.0
2014-Oct-28 11:23N 38°39' W 009°05'2 2.0
2014-Oct-28 10:33N 38°40' W 009°07'1 0.8
2014-Oct-28 09:33N 38°39' W 009°06'3 2.9
2014-Oct-28 08:34N 38°42' W 009°08'0 0.4
2014-Oct-28 07:34N 38°42' W 009°08'4 4.0
2014-Oct-28 06:33N 38°39' W 009°05'0 0.0
2014-Oct-27 21:29N 38°39' W 009°05'3 3.6
2014-Oct-27 20:33N 38°41' W 009°08'3 2.7
2014-Oct-27 19:33N 38°39' W 009°06'3 2.8
2014-Oct-27 18:34N 38°42' W 009°08'1 0.6
2014-Oct-27 17:34N 38°42' W 009°08'1 0.7
2014-Oct-27 16:34N 38°42' W 009°08'4 3.5
2014-Oct-27 15:33N 38°39' W 009°05'2 1.8
2014-Oct-27 14:34N 38°40' W 009°07'1 0.6
2014-Oct-27 13:33N 38°40' W 009°06'1 1.1
2014-Oct-27 12:34N 38°39' W 009°05'0 0.0
2014-Oct-27 11:33N 38°39' W 009°05'3 2.9
2014-Oct-27 10:33N 38°41' W 009°08'3 3.0
2014-Oct-27 09:33N 38°39' W 009°05'1 1.1
2014-Oct-27 08:34N 38°40' W 009°06'3 2.8
2014-Oct-27 07:34N 38°42' W 009°08'0 0.4
2014-Oct-27 06:34N 38°42' W 009°08'0 0.0
2014-Oct-27 05:33N 38°42' W 009°08'4 4.1
2014-Oct-27 04:33N 38°39' W 009°05'0 0.0
2014-Oct-27 03:33N 38°39' W 009°05'0 0.0
2014-Oct-27 02:33N 38°39' W 009°05'1 0.6
2014-Oct-27 01:33N 38°39' W 009°05'0 0.3
2014-Oct-27 00:34N 38°39' W 009°05'0 0.1
2014-Oct-26 23:34N 38°39' W 009°05'1 1.3
2014-Oct-26 22:33N 38°40' W 009°07'0 0.2
2014-Oct-26 21:34N 38°40' W 009°06'0 0.0
2014-Oct-26 20:34N 38°40' W 009°06'2 1.5
2014-Oct-26 19:33N 38°41' W 009°08'0 0.1
2014-Oct-26 18:33N 38°41' W 009°08'0 0.1
2014-Oct-26 17:33N 38°41' W 009°08'0 0.2
2014-Oct-26 16:34N 38°41' W 009°08'1 0.7
2014-Oct-26 15:33N 38°41' W 009°08'3 3.2
2014-Oct-26 14:33N 38°39' W 009°05'0 0.0
2014-Oct-26 13:33N 38°39' W 009°05'1 1.5
2014-Oct-26 12:33N 38°40' W 009°06'0 0.0
2014-Oct-26 11:34N 38°40' W 009°06'1 0.0
2014-Oct-24 15:29N 38°39' W 009°05'0 0.0
2014-Oct-24 09:17N 38°39' W 009°05'1 1.2
2014-Oct-24 08:34N 38°39' W 009°06'3 3.3
2014-Oct-24 07:33N 38°42' W 009°08'1 1.2
2014-Oct-24 06:34N 38°41' W 009°08'3 3.1
2014-Oct-24 05:33N 38°39' W 009°05'0 0.0
2014-Oct-23 19:33N 38°39' W 009°05'4 3.8
2014-Oct-23 18:34N 38°42' W 009°08'0 0.2
2014-Oct-23 17:34N 38°42' W 009°08'3 2.7
2014-Oct-23 16:33N 38°40' W 009°07'2 1.7
2014-Oct-23 15:33N 38°39' W 009°05'1 1.1
2014-Oct-23 14:33N 38°40' W 009°06'1 1.2
2014-Oct-23 13:33N 38°39' W 009°05'0 0.0
2014-Oct-23 12:33N 38°39' W 009°05'0 0.0
2014-Oct-23 11:33N 38°39' W 009°05'0 0.0
2014-Oct-23 10:33N 38°39' W 009°05'0 0.1
2014-Oct-23 09:33N 38°39' W 009°05'1 1.1
2014-Oct-23 08:33N 38°40' W 009°06'1 0.7
2014-Oct-23 07:34N 38°40' W 009°07'2 1.9
2014-Oct-23 06:33N 38°39' W 009°05'0 0.0
2014-Oct-23 05:33N 38°39' W 009°05'0 0.0
2014-Oct-23 04:33N 38°39' W 009°05'0 0.0
2014-Oct-23 03:33N 38°39' W 009°05'0 0.0
2014-Oct-23 02:33N 38°39' W 009°05'0 0.0
2014-Oct-23 01:33N 38°39' W 009°05'0 0.0
2014-Oct-23 00:33N 38°39' W 009°05'0 0.0
2014-Oct-22 23:34N 38°39' W 009°05'4 3.9
2014-Oct-22 22:34N 38°42' W 009°08'1 1.4
2014-Oct-22 21:33N 38°41' W 009°08'0 0.2
2014-Oct-22 20:34N 38°41' W 009°08'3 2.9
2014-Oct-22 19:33N 38°39' W 009°05'1 0.5
2014-Oct-22 18:34N 38°39' W 009°05'0 0.5
2014-Oct-22 17:33N 38°39' W 009°05'2 2.1
2014-Oct-22 16:33N 38°40' W 009°07'2 2.2
2014-Oct-22 15:33N 38°39' W 009°05'0 0.0
2014-Oct-22 08:33N 38°39' W 009°05'0 0.2
2014-Oct-22 07:34N 38°39' W 009°05'0 0.2
2014-Oct-22 06:33N 38°39' W 009°05'0 0.0
2014-Oct-22 05:33N 38°39' W 009°05'4 0.4
2014-Oct-21 19:33N 38°42' W 009°08'0 0.4
2014-Oct-21 18:33N 38°42' W 009°08'1 1.3
2014-Oct-21 17:33N 38°41' W 009°08'3 3.2
2014-Oct-21 16:33N 38°39' W 009°05'0 0.0
2014-Oct-21 15:33N 38°39' W 009°05'0 0.0
2014-Oct-21 14:33N 38°39' W 009°05'0 0.0
2014-Oct-21 13:33N 38°39' W 009°05'3 2.9
2014-Oct-21 12:33N 38°41' W 009°08'0 0.2
2014-Oct-21 11:33N 38°41' W 009°08'0 0.1
2014-Oct-21 10:32N 38°41' W 009°08'3 2.9
2014-Oct-21 09:33N 38°39' W 009°05'2 2.0
2014-Oct-21 08:33N 38°40' W 009°07'3 2.6
2014-Oct-21 07:33N 38°42' W 009°08'1 1.4
2014-Oct-21 06:33N 38°41' W 009°08'3 2.9
2014-Oct-21 05:33N 38°39' W 009°05'4 0.3
2014-Oct-20 18:33N 38°42' W 009°08'  
Track history (hours):
 
Tides and Currents Weather Stations Pressure Air Temp Water Temp Dewpoint Dewpoint Depression Visibility Wind Speed Wind Dir Waves Ship Positions

Fernando Pessoa

Last reported at 2014-Oct-30 17:33 UTC. Time now 2014-Oct-30 18:23 UTC.
Position N 38°39' W 009°05'.

Length 49 m.

MMSI: 263701470.

Date/timePositionNaut miles runAvg speedWind from/ knotsBaromVisibWave heightAir tempDewpointWater temp
2014-Oct-30 17:33N 38°39' W 009°05'4 3.8
2014-Oct-30 16:33N 38°42' W 009°08'1 1.4
2014-Oct-30 15:33N 38°41' W 009°08'0 0.2
2014-Oct-30 14:33N 38°41' W 009°08'0 0.1
2014-Oct-30 13:34N 38°41' W 009°08'0 0.2
2014-Oct-30 12:33N 38°41' W 009°08'0 0.1
2014-Oct-30 11:34N 38°41' W 009°08'3 2.8
2014-Oct-30 10:33N 38°39' W 009°05'2 1.6
2014-Oct-30 09:33N 38°40' W 009°07'3 2.8
2014-Oct-30 08:33N 38°42' W 009°08'1 1.3
2014-Oct-30 07:33N 38°41' W 009°08'3 3.0
2014-Oct-30 06:33N 38°39' W 009°05'0 0.0
2014-Oct-29 22:13N 38°39' W 009°05'0 0.0
2014-Oct-29 21:33N 38°39' W 009°05'0 0.0
2014-Oct-29 20:33N 38°39' W 009°05'4 3.8
2014-Oct-29 19:33N 38°42' W 009°08'0 0.2
2014-Oct-29 18:34N 38°42' W 009°08'2 2.4
2014-Oct-29 17:34N 38°40' W 009°07'1 1.5
2014-Oct-29 16:34N 38°39' W 009°06'1 0.9
2014-Oct-29 15:34N 38°40' W 009°06'1 1.4
2014-Oct-29 14:33N 38°39' W 009°05'0 0.0
2014-Oct-29 13:33N 38°39' W 009°05'0 0.0
2014-Oct-29 12:33N 38°39' W 009°05'0 0.0
2014-Oct-29 11:33N 38°39' W 009°05'0 0.0
2014-Oct-29 10:33N 38°39' W 009°05'2 1.6
2014-Oct-29 09:33N 38°40' W 009°07'0 0.2
2014-Oct-29 08:33N 38°40' W 009°07'2 1.9
2014-Oct-29 07:33N 38°39' W 009°05'0 0.0
2014-Oct-29 06:33N 38°39' W 009°05'0 0.0
2014-Oct-29 05:33N 38°39' W 009°05'0 0.0
2014-Oct-29 04:34N 38°39' W 009°05'0 0.0
2014-Oct-29 03:33N 38°39' W 009°05'0 0.0
2014-Oct-29 02:33N 38°39' W 009°05'0 0.0
2014-Oct-29 01:33N 38°39' W 009°05'0 0.0
2014-Oct-29 00:33N 38°39' W 009°05'4 4.0
2014-Oct-28 23:33N 38°42' W 009°08'1 1.4
2014-Oct-28 22:34N 38°41' W 009°08'0 0.3
2014-Oct-28 21:34N 38°41' W 009°08'3 3.1
2014-Oct-28 20:33N 38°39' W 009°05'1 0.5
2014-Oct-28 19:33N 38°39' W 009°05'1 0.5
2014-Oct-28 18:33N 38°39' W 009°05'1 0.9
2014-Oct-28 17:33N 38°39' W 009°06'1 0.7
2014-Oct-28 16:33N 38°39' W 009°05'0 0.0
2014-Oct-28 11:23N 38°39' W 009°05'2 2.0
2014-Oct-28 10:33N 38°40' W 009°07'1 0.8
2014-Oct-28 09:33N 38°39' W 009°06'3 2.9
2014-Oct-28 08:34N 38°42' W 009°08'0 0.4
2014-Oct-28 07:34N 38°42' W 009°08'4 4.0
2014-Oct-28 06:33N 38°39' W 009°05'0 0.0
2014-Oct-27 21:29N 38°39' W 009°05'3 3.6
2014-Oct-27 20:33N 38°41' W 009°08'3 2.7
2014-Oct-27 19:33N 38°39' W 009°06'3 2.8
2014-Oct-27 18:34N 38°42' W 009°08'1 0.6
2014-Oct-27 17:34N 38°42' W 009°08'1 0.7
2014-Oct-27 16:34N 38°42' W 009°08'4 3.5
2014-Oct-27 15:33N 38°39' W 009°05'2 1.8
2014-Oct-27 14:34N 38°40' W 009°07'1 0.6
2014-Oct-27 13:33N 38°40' W 009°06'1 1.1
2014-Oct-27 12:34N 38°39' W 009°05'0 0.0
2014-Oct-27 11:33N 38°39' W 009°05'3 2.9
2014-Oct-27 10:33N 38°41' W 009°08'3 3.0
2014-Oct-27 09:33N 38°39' W 009°05'1 1.1
2014-Oct-27 08:34N 38°40' W 009°06'3 2.8
2014-Oct-27 07:34N 38°42' W 009°08'0 0.4
2014-Oct-27 06:34N 38°42' W 009°08'0 0.0
2014-Oct-27 05:33N 38°42' W 009°08'4 4.1
2014-Oct-27 04:33N 38°39' W 009°05'0 0.0
2014-Oct-27 03:33N 38°39' W 009°05'0 0.0
2014-Oct-27 02:33N 38°39' W 009°05'1 0.6
2014-Oct-27 01:33N 38°39' W 009°05'0 0.3
2014-Oct-27 00:34N 38°39' W 009°05'0 0.1
2014-Oct-26 23:34N 38°39' W 009°05'1 1.3
2014-Oct-26 22:33N 38°40' W 009°07'0 0.2
2014-Oct-26 21:34N 38°40' W 009°06'0 0.0
2014-Oct-26 20:34N 38°40' W 009°06'2 1.5
2014-Oct-26 19:33N 38°41' W 009°08'0 0.1
2014-Oct-26 18:33N 38°41' W 009°08'0 0.1
2014-Oct-26 17:33N 38°41' W 009°08'0 0.2
2014-Oct-26 16:34N 38°41' W 009°08'1 0.7
2014-Oct-26 15:33N 38°41' W 009°08'3 3.2
2014-Oct-26 14:33N 38°39' W 009°05'0 0.0
2014-Oct-26 13:33N 38°39' W 009°05'1 1.5
2014-Oct-26 12:33N 38°40' W 009°06'0 0.0
2014-Oct-26 11:34N 38°40' W 009°06'1 0.0
2014-Oct-24 15:29N 38°39' W 009°05'0 0.0
2014-Oct-24 09:17N 38°39' W 009°05'1 1.2
2014-Oct-24 08:34N 38°39' W 009°06'3 3.3
2014-Oct-24 07:33N 38°42' W 009°08'1 1.2
2014-Oct-24 06:34N 38°41' W 009°08'3 3.1
2014-Oct-24 05:33N 38°39' W 009°05'0 0.0
2014-Oct-23 19:33N 38°39' W 009°05'4 3.8
2014-Oct-23 18:34N 38°42' W 009°08'0 0.2
2014-Oct-23 17:34N 38°42' W 009°08'3 2.7
2014-Oct-23 16:33N 38°40' W 009°07'2 1.7
2014-Oct-23 15:33N 38°39' W 009°05'1 1.1
2014-Oct-23 14:33N 38°40' W 009°06'1 1.2
2014-Oct-23 13:33N 38°39' W 009°05'0 0.0
2014-Oct-23 12:33N 38°39' W 009°05'0 0.0
2014-Oct-23 11:33N 38°39' W 009°05'0 0.0
2014-Oct-23 10:33N 38°39' W 009°05'0 0.1
2014-Oct-23 09:33N 38°39' W 009°05'1 1.1
2014-Oct-23 08:33N 38°40' W 009°06'1 0.7
2014-Oct-23 07:34N 38°40' W 009°07'2 1.9
2014-Oct-23 06:33N 38°39' W 009°05'0 0.0
2014-Oct-23 05:33N 38°39' W 009°05'0 0.0
2014-Oct-23 04:33N 38°39' W 009°05'0 0.0
2014-Oct-23 03:33N 38°39' W 009°05'0 0.0
2014-Oct-23 02:33N 38°39' W 009°05'0 0.0
2014-Oct-23 01:33N 38°39' W 009°05'0 0.0
2014-Oct-23 00:33N 38°39' W 009°05'0 0.0
2014-Oct-22 23:34N 38°39' W 009°05'4 3.9
2014-Oct-22 22:34N 38°42' W 009°08'1 1.4
2014-Oct-22 21:33N 38°41' W 009°08'0 0.2
2014-Oct-22 20:34N 38°41' W 009°08'3 2.9
2014-Oct-22 19:33N 38°39' W 009°05'1 0.5
2014-Oct-22 18:34N 38°39' W 009°05'0 0.5
2014-Oct-22 17:33N 38°39' W 009°05'2 2.1
2014-Oct-22 16:33N 38°40' W 009°07'2 2.2
2014-Oct-22 15:33N 38°39' W 009°05'0 0.0
2014-Oct-22 08:33N 38°39' W 009°05'0 0.2
2014-Oct-22 07:34N 38°39' W 009°05'0 0.2
2014-Oct-22 06:33N 38°39' W 009°05'0 0.0
2014-Oct-22 05:33N 38°39' W 009°05'4 0.4
2014-Oct-21 19:33N 38°42' W 009°08'0 0.4
2014-Oct-21 18:33N 38°42' W 009°08'1 1.3
2014-Oct-21 17:33N 38°41' W 009°08'3 3.2
2014-Oct-21 16:33N 38°39' W 009°05'0 0.0
2014-Oct-21 15:33N 38°39' W 009°05'0 0.0
2014-Oct-21 14:33N 38°39' W 009°05'0 0.0
2014-Oct-21 13:33N 38°39' W 009°05'3 2.9
2014-Oct-21 12:33N 38°41' W 009°08'0 0.2
2014-Oct-21 11:33N 38°41' W 009°08'0 0.1
2014-Oct-21 10:32N 38°41' W 009°08'3 2.9
2014-Oct-21 09:33N 38°39' W 009°05'2 2.0
2014-Oct-21 08:33N 38°40' W 009°07'3 2.6
2014-Oct-21 07:33N 38°42' W 009°08'1 1.4
2014-Oct-21 06:33N 38°41' W 009°08'3 2.9
2014-Oct-21 05:33N 38°39' W 009°05'4 0.3
2014-Oct-20 18:33N 38°42' W 009°08'  

Dump ship's entire track history